Bruno, MN

9:59 PM CDT on August 30, 2014 (GMT -0500)
Coffee Lake | Change Station
CLOSE
Current Station
Personal Weather Station
Location: Moose Lake Twp., MN
Elevation: 1060 ft
Nearby Weather Stations

Elev 1060 ft 46.43 °N, 92.78 °W | Updated 1 minute ago

Overcast
Overcast
62.2 °F
Feels Like 62.2 °F
N
1.3
Wind Variable Wind from SE
Gusts 2.5 mph

Today
High -- | Low -- °F
--% Chance of Precip.
Yesterday
High -- | Low -- °F
Precip. -- in
6:28 AM 7:52 PM
Waxing Crescent, 27% visible
Pressure 29.88 in
Visibility 10.0 miles
Clouds Mostly Cloudy 700 ft
Overcast 2100 ft
Dew Point 62 °F
Humidity 98%
Rainfall 0.00 in
Snow Depth Not available.
UV 0 out of 12
Pollen 5.30 out of 12
Air Quality Not available.
Flu Activity Not available.
METAR KMZH 310254Z AUTO 00000KT 10SM BKN007 OVC021 17/15 A2988 RMK AO2

More Conditions Fewer Conditions

Pressure 29.88 in
Visibility 10.0 miles
Clouds Mostly Cloudy 700 ft
Overcast 2100 ft
Dew Point 62 °F
Humidity 98%
Rainfall 0.00 in
Snow Depth Not available.
UV 0 out of 12
Pollen 5.30 out of 12
Air Quality Not available.
Flu Activity Not available.
METAR KMZH 310254Z AUTO 00000KT 10SM BKN007 OVC021 17/15 A2988 RMK AO2

More Conditions Fewer Conditions

10-Day Weather Forecast

Almanac

Astronomy

Aug. 30, 2014 Rise Set
Actual Time 6:28 AM CDT 7:52 PM CDT
Civil Twilight 5:56 AM CDT 8:23 PM CDT
Nautical Twilight 5:18 AM CDT 9:01 PM CDT
Astronomical Twilight 4:38 AM CDT 9:41 PM CDT
Moon 11:34 AM CDT (8/30) 10:07 PM CDT (8/30)
Length of Visible Light 14h 26m
Length of Day
13h 24m
Tomorrow will be 3m 8s shorter.
Waxing Crescent, 27% of the Moon is Illuminated
Today
Waxing Crescent
Sep 2
First Quarter
Sep 8
Full
Sep 15
Last Quarter
Sep 24
New

Today's Extremes

State Highs State Lows

Community

WunderPhotos

Upload Photos

1,748,749 photos uploaded!

Nearby

Snow Depth

Station Depth Elevation
No new snow has been reported.

Earthquake Activity

City Distance Mag. Time & Date
No recent earthquake activity has been reported nearby.
Minimum magnitude displayed is 2.5.

Coastal Water Temperatures

Place Temperature
Duluth, MN 64.9 °F

Nearby Weather Stations